sensor_id;sensor_type;location;lat;lon;timestamp;P1;durP1;ratioP1;P2;durP2;ratioP2
15082;SDS011;7640;53.116;6.878;2023-12-20T00:00:38;12.40;;;2.40;;
15082;SDS011;7640;53.116;6.878;2023-12-20T00:03:09;14.23;;;3.07;;
15082;SDS011;7640;53.116;6.878;2023-12-20T00:05:43;11.60;;;2.80;;
15082;SDS011;7640;53.116;6.878;2023-12-20T00:08:18;11.20;;;3.40;;
15082;SDS011;7640;53.116;6.878;2023-12-20T00:10:50;14.67;;;3.07;;
15082;SDS011;7640;53.116;6.878;2023-12-20T00:13:24;15.30;;;2.87;;
15082;SDS011;7640;53.116;6.878;2023-12-20T00:15:55;13.43;;;2.80;;
15082;SDS011;7640;53.116;6.878;2023-12-20T00:18:26;12.83;;;3.10;;
15082;SDS011;7640;53.116;6.878;2023-12-20T00:20:57;9.97;;;2.70;;
15082;SDS011;7640;53.116;6.878;2023-12-20T00:23:27;18.10;;;2.80;;
15082;SDS011;7640;53.116;6.878;2023-12-20T00:26:01;17.97;;;3.80;;
15082;SDS011;7640;53.116;6.878;2023-12-20T00:28:31;12.80;;;3.10;;
15082;SDS011;7640;53.116;6.878;2023-12-20T00:31:06;11.73;;;2.90;;
15082;SDS011;7640;53.116;6.878;2023-12-20T00:33:38;14.23;;;3.53;;
15082;SDS011;7640;53.116;6.878;2023-12-20T00:36:13;16.70;;;3.17;;
15082;SDS011;7640;53.116;6.878;2023-12-20T00:38:44;14.43;;;2.97;;
15082;SDS011;7640;53.116;6.878;2023-12-20T00:41:22;12.43;;;2.90;;
15082;SDS011;7640;53.116;6.878;2023-12-20T00:43:52;10.87;;;2.93;;
15082;SDS011;7640;53.116;6.878;2023-12-20T00:46:21;14.40;;;3.17;;
15082;SDS011;7640;53.116;6.878;2023-12-20T00:48:52;17.77;;;3.47;;
15082;SDS011;7640;53.116;6.878;2023-12-20T00:51:24;15.37;;;3.30;;
15082;SDS011;7640;53.116;6.878;2023-12-20T00:53:55;17.23;;;2.90;;
15082;SDS011;7640;53.116;6.878;2023-12-20T00:56:26;16.97;;;3.13;;
15082;SDS011;7640;53.116;6.878;2023-12-20T00:58:56;17.80;;;2.90;;
15082;SDS011;7640;53.116;6.878;2023-12-20T01:01:28;15.27;;;3.40;;
15082;SDS011;7640;53.116;6.878;2023-12-20T01:04:03;12.60;;;2.90;;
15082;SDS011;7640;53.116;6.878;2023-12-20T01:06:36;11.50;;;3.30;;
15082;SDS011;7640;53.116;6.878;2023-12-20T01:09:07;8.90;;;3.00;;
15082;SDS011;7640;53.116;6.878;2023-12-20T01:11:37;11.97;;;2.97;;
15082;SDS011;7640;53.116;6.878;2023-12-20T01:14:09;18.57;;;3.33;;
15082;SDS011;7640;53.116;6.878;2023-12-20T01:16:43;18.10;;;3.30;;
15082;SDS011;7640;53.116;6.878;2023-12-20T01:19:15;16.57;;;3.53;;
15082;SDS011;7640;53.116;6.878;2023-12-20T01:21:47;16.73;;;3.77;;
15082;SDS011;7640;53.116;6.878;2023-12-20T01:24:20;15.17;;;2.87;;
15082;SDS011;7640;53.116;6.878;2023-12-20T01:26:50;8.97;;;2.47;;
15082;SDS011;7640;53.116;6.878;2023-12-20T01:29:20;15.60;;;3.43;;
15082;SDS011;7640;53.116;6.878;2023-12-20T01:31:52;11.03;;;2.97;;
15082;SDS011;7640;53.116;6.878;2023-12-20T01:34:24;15.17;;;3.57;;
15082;SDS011;7640;53.116;6.878;2023-12-20T01:36:56;15.07;;;3.23;;
15082;SDS011;7640;53.116;6.878;2023-12-20T01:39:28;15.50;;;3.03;;
15082;SDS011;7640;53.116;6.878;2023-12-20T01:41:58;12.57;;;2.50;;
15082;SDS011;7640;53.116;6.878;2023-12-20T01:44:31;12.30;;;2.93;;
15082;SDS011;7640;53.116;6.878;2023-12-20T01:47:01;13.87;;;2.90;;
15082;SDS011;7640;53.116;6.878;2023-12-20T01:49:33;12.70;;;3.27;;
15082;SDS011;7640;53.116;6.878;2023-12-20T01:52:08;20.67;;;4.00;;
15082;SDS011;7640;53.116;6.878;2023-12-20T01:54:39;13.93;;;3.37;;
15082;SDS011;7640;53.116;6.878;2023-12-20T01:57:12;10.40;;;2.90;;
15082;SDS011;7640;53.116;6.878;2023-12-20T01:59:42;12.83;;;3.07;;
15082;SDS011;7640;53.116;6.878;2023-12-20T02:02:14;10.93;;;3.27;;
15082;SDS011;7640;53.116;6.878;2023-12-20T02:04:47;10.33;;;2.40;;
15082;SDS011;7640;53.116;6.878;2023-12-20T02:07:20;18.70;;;3.83;;
15082;SDS011;7640;53.116;6.878;2023-12-20T02:09:52;14.43;;;3.60;;
15082;SDS011;7640;53.116;6.878;2023-12-20T02:12:23;8.63;;;2.63;;
15082;SDS011;7640;53.116;6.878;2023-12-20T02:14:56;14.07;;;2.67;;
15082;SDS011;7640;53.116;6.878;2023-12-20T02:17:28;7.43;;;2.37;;
15082;SDS011;7640;53.116;6.878;2023-12-20T02:20:04;11.03;;;2.53;;
15082;SDS011;7640;53.116;6.878;2023-12-20T02:22:45;15.77;;;2.57;;
15082;SDS011;7640;53.116;6.878;2023-12-20T02:25:24;12.80;;;2.63;;
15082;SDS011;7640;53.116;6.878;2023-12-20T02:28:10;17.93;;;2.90;;
15082;SDS011;7640;53.116;6.878;2023-12-20T02:30:40;14.90;;;2.93;;
15082;SDS011;7640;53.116;6.878;2023-12-20T02:33:13;10.03;;;2.43;;
15082;SDS011;7640;53.116;6.878;2023-12-20T02:35:45;10.80;;;3.17;;
15082;SDS011;7640;53.116;6.878;2023-12-20T02:38:20;12.97;;;3.07;;
15082;SDS011;7640;53.116;6.878;2023-12-20T02:40:57;11.77;;;3.10;;
15082;SDS011;7640;53.116;6.878;2023-12-20T02:43:26;16.63;;;3.70;;
15082;SDS011;7640;53.116;6.878;2023-12-20T02:45:58;19.33;;;4.27;;
15082;SDS011;7640;53.116;6.878;2023-12-20T02:48:28;19.93;;;5.03;;
15082;SDS011;7640;53.116;6.878;2023-12-20T02:50:58;18.83;;;4.03;;
15082;SDS011;7640;53.116;6.878;2023-12-20T02:53:33;17.97;;;4.03;;
15082;SDS011;7640;53.116;6.878;2023-12-20T02:56:12;20.37;;;4.50;;
15082;SDS011;7640;53.116;6.878;2023-12-20T02:58:42;16.37;;;4.07;;
15082;SDS011;7640;53.116;6.878;2023-12-20T03:01:16;19.57;;;5.63;;
15082;SDS011;7640;53.116;6.878;2023-12-20T03:03:49;19.10;;;4.40;;
15082;SDS011;7640;53.116;6.878;2023-12-20T03:06:20;25.07;;;4.77;;
15082;SDS011;7640;53.116;6.878;2023-12-20T03:08:52;18.23;;;4.33;;
15082;SDS011;7640;53.116;6.878;2023-12-20T03:11:21;20.87;;;4.43;;
15082;SDS011;7640;53.116;6.878;2023-12-20T03:13:56;23.07;;;4.50;;
15082;SDS011;7640;53.116;6.878;2023-12-20T03:16:27;20.83;;;4.00;;
15082;SDS011;7640;53.116;6.878;2023-12-20T03:19:00;20.10;;;3.77;;
15082;SDS011;7640;53.116;6.878;2023-12-20T03:21:38;21.47;;;4.90;;
15082;SDS011;7640;53.116;6.878;2023-12-20T03:24:09;22.10;;;4.47;;
15082;SDS011;7640;53.116;6.878;2023-12-20T03:26:40;24.00;;;4.30;;
15082;SDS011;7640;53.116;6.878;2023-12-20T03:29:11;18.80;;;4.10;;
15082;SDS011;7640;53.116;6.878;2023-12-20T03:31:41;26.67;;;4.60;;
15082;SDS011;7640;53.116;6.878;2023-12-20T03:34:12;26.77;;;4.50;;
15082;SDS011;7640;53.116;6.878;2023-12-20T03:36:44;22.17;;;4.00;;
15082;SDS011;7640;53.116;6.878;2023-12-20T03:39:16;25.97;;;4.93;;
15082;SDS011;7640;53.116;6.878;2023-12-20T03:41:50;26.30;;;4.50;;
15082;SDS011;7640;53.116;6.878;2023-12-20T03:44:20;20.43;;;5.37;;
15082;SDS011;7640;53.116;6.878;2023-12-20T03:46:50;25.27;;;5.47;;
15082;SDS011;7640;53.116;6.878;2023-12-20T03:49:20;21.07;;;4.33;;
15082;SDS011;7640;53.116;6.878;2023-12-20T03:51:58;20.43;;;5.33;;
15082;SDS011;7640;53.116;6.878;2023-12-20T03:54:32;23.73;;;5.13;;
15082;SDS011;7640;53.116;6.878;2023-12-20T03:57:04;25.37;;;5.30;;
15082;SDS011;7640;53.116;6.878;2023-12-20T03:59:34;27.30;;;5.60;;
15082;SDS011;7640;53.116;6.878;2023-12-20T04:02:05;20.57;;;4.10;;
15082;SDS011;7640;53.116;6.878;2023-12-20T04:04:38;27.77;;;5.90;;
15082;SDS011;7640;53.116;6.878;2023-12-20T04:07:09;22.43;;;4.60;;
15082;SDS011;7640;53.116;6.878;2023-12-20T04:09:41;22.43;;;4.93;;
15082;SDS011;7640;53.116;6.878;2023-12-20T04:12:12;19.93;;;4.53;;
15082;SDS011;7640;53.116;6.878;2023-12-20T04:14:42;24.17;;;6.33;;
15082;SDS011;7640;53.116;6.878;2023-12-20T04:17:11;25.33;;;5.13;;
15082;SDS011;7640;53.116;6.878;2023-12-20T04:19:41;26.27;;;4.70;;
15082;SDS011;7640;53.116;6.878;2023-12-20T04:22:16;23.70;;;5.03;;
15082;SDS011;7640;53.116;6.878;2023-12-20T04:24:49;23.00;;;5.23;;
15082;SDS011;7640;53.116;6.878;2023-12-20T04:27:27;15.70;;;4.60;;
15082;SDS011;7640;53.116;6.878;2023-12-20T04:29:57;22.33;;;4.37;;
15082;SDS011;7640;53.116;6.878;2023-12-20T04:32:28;25.47;;;4.90;;
15082;SDS011;7640;53.116;6.878;2023-12-20T04:34:58;23.70;;;4.43;;
15082;SDS011;7640;53.116;6.878;2023-12-20T04:37:29;19.53;;;4.47;;
15082;SDS011;7640;53.116;6.878;2023-12-20T04:40:00;29.80;;;5.47;;
15082;SDS011;7640;53.116;6.878;2023-12-20T04:42:32;21.73;;;5.13;;
15082;SDS011;7640;53.116;6.878;2023-12-20T04:45:03;21.73;;;5.23;;
15082;SDS011;7640;53.116;6.878;2023-12-20T04:47:34;29.00;;;5.93;;
15082;SDS011;7640;53.116;6.878;2023-12-20T04:50:17;25.53;;;5.07;;
15082;SDS011;7640;53.116;6.878;2023-12-20T04:53:02;21.60;;;4.50;;
15082;SDS011;7640;53.116;6.878;2023-12-20T04:55:36;24.33;;;5.00;;
15082;SDS011;7640;53.116;6.878;2023-12-20T04:58:11;25.40;;;4.73;;
15082;SDS011;7640;53.116;6.878;2023-12-20T05:00:41;24.73;;;5.00;;
15082;SDS011;7640;53.116;6.878;2023-12-20T05:03:13;31.03;;;5.47;;
15082;SDS011;7640;53.116;6.878;2023-12-20T05:05:45;19.57;;;4.57;;
15082;SDS011;7640;53.116;6.878;2023-12-20T05:08:27;24.17;;;4.80;;
15082;SDS011;7640;53.116;6.878;2023-12-20T05:10:58;20.50;;;5.37;;
15082;SDS011;7640;53.116;6.878;2023-12-20T05:13:29;25.37;;;4.40;;
15082;SDS011;7640;53.116;6.878;2023-12-20T05:16:16;18.83;;;4.53;;
15082;SDS011;7640;53.116;6.878;2023-12-20T05:18:48;18.63;;;4.03;;
15082;SDS011;7640;53.116;6.878;2023-12-20T05:21:24;25.27;;;5.47;;
15082;SDS011;7640;53.116;6.878;2023-12-20T05:23:55;24.30;;;4.00;;
15082;SDS011;7640;53.116;6.878;2023-12-20T05:26:29;24.50;;;5.60;;
15082;SDS011;7640;53.116;6.878;2023-12-20T05:28:59;21.20;;;4.40;;
15082;SDS011;7640;53.116;6.878;2023-12-20T05:31:32;20.20;;;4.40;;
15082;SDS011;7640;53.116;6.878;2023-12-20T05:34:04;29.33;;;5.07;;
15082;SDS011;7640;53.116;6.878;2023-12-20T05:36:38;16.00;;;3.70;;
15082;SDS011;7640;53.116;6.878;2023-12-20T05:39:09;18.33;;;3.80;;
15082;SDS011;7640;53.116;6.878;2023-12-20T05:41:49;28.97;;;5.33;;
15082;SDS011;7640;53.116;6.878;2023-12-20T05:44:20;18.20;;;5.03;;
15082;SDS011;7640;53.116;6.878;2023-12-20T05:46:52;25.90;;;5.93;;
15082;SDS011;7640;53.116;6.878;2023-12-20T05:49:23;27.40;;;6.73;;
15082;SDS011;7640;53.116;6.878;2023-12-20T05:51:55;24.33;;;4.83;;
15082;SDS011;7640;53.116;6.878;2023-12-20T05:54:25;21.73;;;5.83;;
15082;SDS011;7640;53.116;6.878;2023-12-20T05:56:56;23.87;;;4.77;;
15082;SDS011;7640;53.116;6.878;2023-12-20T05:59:26;23.73;;;5.37;;
15082;SDS011;7640;53.116;6.878;2023-12-20T06:01:59;22.37;;;5.20;;
15082;SDS011;7640;53.116;6.878;2023-12-20T06:04:41;18.77;;;4.40;;
15082;SDS011;7640;53.116;6.878;2023-12-20T06:07:11;23.50;;;4.40;;
15082;SDS011;7640;53.116;6.878;2023-12-20T06:09:45;23.03;;;4.60;;
15082;SDS011;7640;53.116;6.878;2023-12-20T06:12:26;19.67;;;4.47;;
15082;SDS011;7640;53.116;6.878;2023-12-20T06:15:03;24.30;;;4.67;;
15082;SDS011;7640;53.116;6.878;2023-12-20T06:17:36;26.87;;;4.53;;
15082;SDS011;7640;53.116;6.878;2023-12-20T06:20:07;21.57;;;5.17;;
15082;SDS011;7640;53.116;6.878;2023-12-20T06:22:39;19.13;;;4.33;;
15082;SDS011;7640;53.116;6.878;2023-12-20T06:25:10;19.50;;;5.03;;
15082;SDS011;7640;53.116;6.878;2023-12-20T06:27:46;33.07;;;5.70;;
15082;SDS011;7640;53.116;6.878;2023-12-20T06:30:17;13.77;;;3.43;;
15082;SDS011;7640;53.116;6.878;2023-12-20T06:32:50;31.27;;;4.57;;
15082;SDS011;7640;53.116;6.878;2023-12-20T06:35:23;26.73;;;5.07;;
15082;SDS011;7640;53.116;6.878;2023-12-20T06:38:06;22.23;;;4.80;;
15082;SDS011;7640;53.116;6.878;2023-12-20T06:40:36;26.63;;;5.37;;
15082;SDS011;7640;53.116;6.878;2023-12-20T06:43:17;23.77;;;4.20;;
15082;SDS011;7640;53.116;6.878;2023-12-20T06:46:11;26.20;;;5.07;;
15082;SDS011;7640;53.116;6.878;2023-12-20T06:48:41;20.00;;;4.80;;
15082;SDS011;7640;53.116;6.878;2023-12-20T06:51:12;23.90;;;4.77;;
15082;SDS011;7640;53.116;6.878;2023-12-20T06:53:43;21.07;;;4.57;;
15082;SDS011;7640;53.116;6.878;2023-12-20T06:56:13;26.70;;;4.93;;
15082;SDS011;7640;53.116;6.878;2023-12-20T06:58:50;20.50;;;4.50;;
15082;SDS011;7640;53.116;6.878;2023-12-20T07:01:23;19.93;;;4.60;;
15082;SDS011;7640;53.116;6.878;2023-12-20T07:03:57;16.80;;;3.93;;
15082;SDS011;7640;53.116;6.878;2023-12-20T07:06:27;22.40;;;4.60;;
15082;SDS011;7640;53.116;6.878;2023-12-20T07:09:04;19.63;;;4.67;;
15082;SDS011;7640;53.116;6.878;2023-12-20T07:11:39;25.93;;;4.23;;
15082;SDS011;7640;53.116;6.878;2023-12-20T07:14:12;22.50;;;4.07;;
15082;SDS011;7640;53.116;6.878;2023-12-20T07:16:45;27.80;;;5.03;;
15082;SDS011;7640;53.116;6.878;2023-12-20T07:19:17;22.93;;;4.63;;
15082;SDS011;7640;53.116;6.878;2023-12-20T07:21:50;17.40;;;3.57;;
15082;SDS011;7640;53.116;6.878;2023-12-20T07:24:23;18.97;;;4.03;;
15082;SDS011;7640;53.116;6.878;2023-12-20T07:27:00;23.90;;;4.43;;
15082;SDS011;7640;53.116;6.878;2023-12-20T07:29:36;26.00;;;5.17;;
15082;SDS011;7640;53.116;6.878;2023-12-20T07:32:07;24.10;;;4.40;;
15082;SDS011;7640;53.116;6.878;2023-12-20T07:34:38;22.87;;;5.30;;
15082;SDS011;7640;53.116;6.878;2023-12-20T07:37:09;21.53;;;4.50;;
15082;SDS011;7640;53.116;6.878;2023-12-20T07:39:42;23.47;;;4.60;;
15082;SDS011;7640;53.116;6.878;2023-12-20T07:42:12;24.50;;;5.90;;
15082;SDS011;7640;53.116;6.878;2023-12-20T07:44:47;24.83;;;5.50;;
15082;SDS011;7640;53.116;6.878;2023-12-20T07:47:17;22.67;;;4.37;;
15082;SDS011;7640;53.116;6.878;2023-12-20T07:49:49;24.17;;;4.90;;
15082;SDS011;7640;53.116;6.878;2023-12-20T07:52:20;31.80;;;5.53;;
15082;SDS011;7640;53.116;6.878;2023-12-20T07:54:53;22.60;;;5.23;;
15082;SDS011;7640;53.116;6.878;2023-12-20T07:57:24;16.30;;;4.60;;
15082;SDS011;7640;53.116;6.878;2023-12-20T08:00:00;25.50;;;5.83;;
15082;SDS011;7640;53.116;6.878;2023-12-20T08:02:35;22.03;;;5.97;;
15082;SDS011;7640;53.116;6.878;2023-12-20T08:05:07;19.47;;;5.03;;
15082;SDS011;7640;53.116;6.878;2023-12-20T08:07:39;26.00;;;4.70;;
15082;SDS011;7640;53.116;6.878;2023-12-20T08:10:11;24.50;;;4.87;;
15082;SDS011;7640;53.116;6.878;2023-12-20T08:12:46;27.67;;;5.43;;
15082;SDS011;7640;53.116;6.878;2023-12-20T08:15:19;28.80;;;5.10;;
15082;SDS011;7640;53.116;6.878;2023-12-20T08:17:49;17.93;;;4.80;;
15082;SDS011;7640;53.116;6.878;2023-12-20T08:20:20;13.43;;;4.00;;
15082;SDS011;7640;53.116;6.878;2023-12-20T08:23:05;19.43;;;4.90;;
15082;SDS011;7640;53.116;6.878;2023-12-20T08:25:34;19.23;;;4.70;;
15082;SDS011;7640;53.116;6.878;2023-12-20T08:28:05;22.17;;;4.90;;
15082;SDS011;7640;53.116;6.878;2023-12-20T08:30:38;19.50;;;4.13;;
15082;SDS011;7640;53.116;6.878;2023-12-20T08:33:10;36.67;;;7.77;;
15082;SDS011;7640;53.116;6.878;2023-12-20T08:35:41;21.23;;;4.70;;
15082;SDS011;7640;53.116;6.878;2023-12-20T08:38:11;20.33;;;5.17;;
15082;SDS011;7640;53.116;6.878;2023-12-20T08:40:41;21.00;;;5.13;;
15082;SDS011;7640;53.116;6.878;2023-12-20T08:43:20;19.93;;;4.73;;
15082;SDS011;7640;53.116;6.878;2023-12-20T08:45:56;21.53;;;4.73;;
15082;SDS011;7640;53.116;6.878;2023-12-20T08:48:26;27.50;;;4.67;;
15082;SDS011;7640;53.116;6.878;2023-12-20T08:50:56;18.77;;;4.47;;
15082;SDS011;7640;53.116;6.878;2023-12-20T08:53:28;27.97;;;5.70;;
15082;SDS011;7640;53.116;6.878;2023-12-20T08:55:58;20.43;;;5.40;;
15082;SDS011;7640;53.116;6.878;2023-12-20T08:58:29;20.20;;;4.83;;
15082;SDS011;7640;53.116;6.878;2023-12-20T09:01:05;22.83;;;4.63;;
15082;SDS011;7640;53.116;6.878;2023-12-20T09:03:45;8.33;;;1.83;;
15082;SDS011;7640;53.116;6.878;2023-12-20T09:06:16;17.93;;;2.30;;
15082;SDS011;7640;53.116;6.878;2023-12-20T09:09:00;7.83;;;1.70;;
15082;SDS011;7640;53.116;6.878;2023-12-20T09:11:35;5.00;;;1.43;;
15082;SDS011;7640;53.116;6.878;2023-12-20T09:14:05;3.07;;;1.10;;
15082;SDS011;7640;53.116;6.878;2023-12-20T09:16:37;7.77;;;1.30;;
15082;SDS011;7640;53.116;6.878;2023-12-20T09:19:07;5.43;;;1.00;;
15082;SDS011;7640;53.116;6.878;2023-12-20T09:21:42;7.23;;;1.43;;
15082;SDS011;7640;53.116;6.878;2023-12-20T09:24:20;8.53;;;1.63;;
15082;SDS011;7640;53.116;6.878;2023-12-20T09:26:50;5.60;;;1.33;;
15082;SDS011;7640;53.116;6.878;2023-12-20T09:29:20;7.23;;;1.47;;
15082;SDS011;7640;53.116;6.878;2023-12-20T09:31:53;11.30;;;1.70;;
15082;SDS011;7640;53.116;6.878;2023-12-20T09:34:24;11.57;;;2.10;;
15082;SDS011;7640;53.116;6.878;2023-12-20T09:36:57;9.13;;;2.03;;
15082;SDS011;7640;53.116;6.878;2023-12-20T09:39:39;7.73;;;1.77;;
15082;SDS011;7640;53.116;6.878;2023-12-20T09:42:11;6.67;;;1.30;;
15082;SDS011;7640;53.116;6.878;2023-12-20T09:44:52;4.93;;;1.37;;
15082;SDS011;7640;53.116;6.878;2023-12-20T09:47:24;8.07;;;1.83;;
15082;SDS011;7640;53.116;6.878;2023-12-20T09:49:54;8.23;;;1.47;;
15082;SDS011;7640;53.116;6.878;2023-12-20T09:52:27;5.20;;;1.47;;
15082;SDS011;7640;53.116;6.878;2023-12-20T09:55:00;5.30;;;1.13;;
15082;SDS011;7640;53.116;6.878;2023-12-20T09:57:38;2.90;;;1.00;;
15082;SDS011;7640;53.116;6.878;2023-12-20T10:00:14;4.23;;;1.10;;
15082;SDS011;7640;53.116;6.878;2023-12-20T10:02:49;3.10;;;1.40;;
15082;SDS011;7640;53.116;6.878;2023-12-20T10:05:26;5.37;;;0.90;;
15082;SDS011;7640;53.116;6.878;2023-12-20T10:08:00;5.20;;;1.40;;
15082;SDS011;7640;53.116;6.878;2023-12-20T10:10:31;6.50;;;1.10;;
15082;SDS011;7640;53.116;6.878;2023-12-20T10:13:13;6.40;;;1.30;;
15082;SDS011;7640;53.116;6.878;2023-12-20T10:15:45;9.40;;;1.60;;
15082;SDS011;7640;53.116;6.878;2023-12-20T10:18:18;5.83;;;1.53;;
15082;SDS011;7640;53.116;6.878;2023-12-20T10:21:03;9.60;;;1.50;;
15082;SDS011;7640;53.116;6.878;2023-12-20T10:23:37;6.57;;;1.30;;
15082;SDS011;7640;53.116;6.878;2023-12-20T10:26:08;9.23;;;1.40;;
15082;SDS011;7640;53.116;6.878;2023-12-20T10:28:39;8.30;;;2.30;;
15082;SDS011;7640;53.116;6.878;2023-12-20T10:31:09;5.33;;;1.50;;
15082;SDS011;7640;53.116;6.878;2023-12-20T10:33:55;7.63;;;1.67;;
15082;SDS011;7640;53.116;6.878;2023-12-20T10:36:29;7.30;;;1.60;;
15082;SDS011;7640;53.116;6.878;2023-12-20T10:39:00;6.80;;;1.70;;
15082;SDS011;7640;53.116;6.878;2023-12-20T10:41:39;9.37;;;1.77;;
15082;SDS011;7640;53.116;6.878;2023-12-20T10:44:19;7.83;;;1.77;;
15082;SDS011;7640;53.116;6.878;2023-12-20T10:46:49;10.43;;;1.67;;
15082;SDS011;7640;53.116;6.878;2023-12-20T10:49:26;13.40;;;1.80;;
15082;SDS011;7640;53.116;6.878;2023-12-20T10:51:58;17.00;;;2.33;;
15082;SDS011;7640;53.116;6.878;2023-12-20T10:54:40;8.97;;;1.60;;
15082;SDS011;7640;53.116;6.878;2023-12-20T10:57:12;9.30;;;2.30;;
15082;SDS011;7640;53.116;6.878;2023-12-20T10:59:42;11.20;;;2.10;;
15082;SDS011;7640;53.116;6.878;2023-12-20T11:02:16;11.77;;;2.17;;
15082;SDS011;7640;53.116;6.878;2023-12-20T11:04:54;7.30;;;1.97;;
15082;SDS011;7640;53.116;6.878;2023-12-20T11:07:32;10.93;;;2.20;;
15082;SDS011;7640;53.116;6.878;2023-12-20T11:10:10;12.00;;;1.87;;
15082;SDS011;7640;53.116;6.878;2023-12-20T11:12:51;11.30;;;1.90;;
15082;SDS011;7640;53.116;6.878;2023-12-20T11:15:27;14.23;;;2.13;;
15082;SDS011;7640;53.116;6.878;2023-12-20T11:17:58;13.27;;;2.47;;
15082;SDS011;7640;53.116;6.878;2023-12-20T11:20:36;9.00;;;2.10;;
15082;SDS011;7640;53.116;6.878;2023-12-20T11:23:09;18.67;;;2.80;;
15082;SDS011;7640;53.116;6.878;2023-12-20T11:25:50;7.90;;;2.00;;
15082;SDS011;7640;53.116;6.878;2023-12-20T11:28:29;11.37;;;2.37;;
15082;SDS011;7640;53.116;6.878;2023-12-20T11:31:00;7.97;;;2.47;;
15082;SDS011;7640;53.116;6.878;2023-12-20T11:33:32;11.97;;;2.40;;
15082;SDS011;7640;53.116;6.878;2023-12-20T11:36:14;16.73;;;2.73;;
15082;SDS011;7640;53.116;6.878;2023-12-20T11:38:57;11.63;;;2.50;;
15082;SDS011;7640;53.116;6.878;2023-12-20T11:41:28;12.30;;;2.57;;
15082;SDS011;7640;53.116;6.878;2023-12-20T11:43:57;15.17;;;2.93;;
15082;SDS011;7640;53.116;6.878;2023-12-20T11:46:28;12.80;;;3.50;;
15082;SDS011;7640;53.116;6.878;2023-12-20T11:48:57;12.13;;;2.43;;
15082;SDS011;7640;53.116;6.878;2023-12-20T11:51:31;14.93;;;3.33;;
15082;SDS011;7640;53.116;6.878;2023-12-20T11:54:09;10.63;;;2.57;;
15082;SDS011;7640;53.116;6.878;2023-12-20T11:56:41;11.60;;;2.17;;
15082;SDS011;7640;53.116;6.878;2023-12-20T11:59:13;12.00;;;2.27;;
15082;SDS011;7640;53.116;6.878;2023-12-20T12:01:49;19.00;;;2.37;;
15082;SDS011;7640;53.116;6.878;2023-12-20T12:04:19;9.00;;;2.27;;
15082;SDS011;7640;53.116;6.878;2023-12-20T12:06:51;15.23;;;2.87;;
15082;SDS011;7640;53.116;6.878;2023-12-20T12:09:21;11.60;;;2.00;;
15082;SDS011;7640;53.116;6.878;2023-12-20T12:11:51;12.10;;;2.17;;
15082;SDS011;7640;53.116;6.878;2023-12-20T12:14:24;11.37;;;2.57;;
15082;SDS011;7640;53.116;6.878;2023-12-20T12:16:55;13.77;;;2.57;;
15082;SDS011;7640;53.116;6.878;2023-12-20T12:19:26;10.10;;;2.47;;
15082;SDS011;7640;53.116;6.878;2023-12-20T12:22:07;11.27;;;2.67;;
15082;SDS011;7640;53.116;6.878;2023-12-20T12:24:41;13.33;;;3.17;;
15082;SDS011;7640;53.116;6.878;2023-12-20T12:27:13;16.50;;;3.10;;
15082;SDS011;7640;53.116;6.878;2023-12-20T12:30:00;11.17;;;2.80;;
15082;SDS011;7640;53.116;6.878;2023-12-20T12:32:31;16.63;;;3.13;;
15082;SDS011;7640;53.116;6.878;2023-12-20T12:35:03;15.43;;;2.70;;
15082;SDS011;7640;53.116;6.878;2023-12-20T12:37:37;12.40;;;2.20;;
15082;SDS011;7640;53.116;6.878;2023-12-20T12:40:09;9.97;;;3.33;;
15082;SDS011;7640;53.116;6.878;2023-12-20T12:42:44;14.97;;;3.00;;
15082;SDS011;7640;53.116;6.878;2023-12-20T12:45:17;12.53;;;2.37;;
15082;SDS011;7640;53.116;6.878;2023-12-20T12:47:53;10.60;;;2.57;;
15082;SDS011;7640;53.116;6.878;2023-12-20T12:50:23;12.03;;;2.50;;
15082;SDS011;7640;53.116;6.878;2023-12-20T12:52:57;10.53;;;2.50;;
15082;SDS011;7640;53.116;6.878;2023-12-20T12:55:28;9.60;;;2.23;;
15082;SDS011;7640;53.116;6.878;2023-12-20T12:57:58;12.23;;;2.13;;
15082;SDS011;7640;53.116;6.878;2023-12-20T13:00:32;10.17;;;2.60;;
15082;SDS011;7640;53.116;6.878;2023-12-20T13:03:04;15.90;;;2.43;;
15082;SDS011;7640;53.116;6.878;2023-12-20T13:05:33;10.10;;;2.27;;
15082;SDS011;7640;53.116;6.878;2023-12-20T13:08:08;7.97;;;2.10;;
15082;SDS011;7640;53.116;6.878;2023-12-20T13:10:39;11.87;;;2.27;;
15082;SDS011;7640;53.116;6.878;2023-12-20T13:13:19;17.50;;;3.00;;
15082;SDS011;7640;53.116;6.878;2023-12-20T13:15:53;11.47;;;2.30;;
15082;SDS011;7640;53.116;6.878;2023-12-20T13:18:28;13.60;;;2.83;;
15082;SDS011;7640;53.116;6.878;2023-12-20T13:21:09;12.80;;;2.87;;
15082;SDS011;7640;53.116;6.878;2023-12-20T13:23:43;12.20;;;2.60;;
15082;SDS011;7640;53.116;6.878;2023-12-20T13:26:13;14.07;;;2.47;;
15082;SDS011;7640;53.116;6.878;2023-12-20T13:28:43;19.57;;;2.70;;
15082;SDS011;7640;53.116;6.878;2023-12-20T13:31:12;13.77;;;2.83;;
15082;SDS011;7640;53.116;6.878;2023-12-20T13:33:51;14.00;;;2.53;;
15082;SDS011;7640;53.116;6.878;2023-12-20T13:36:22;10.43;;;2.70;;
15082;SDS011;7640;53.116;6.878;2023-12-20T13:38:54;11.17;;;2.10;;
15082;SDS011;7640;53.116;6.878;2023-12-20T13:41:23;13.23;;;3.13;;
15082;SDS011;7640;53.116;6.878;2023-12-20T13:43:54;10.80;;;2.43;;
15082;SDS011;7640;53.116;6.878;2023-12-20T13:46:25;12.13;;;2.37;;
15082;SDS011;7640;53.116;6.878;2023-12-20T13:48:55;11.87;;;2.40;;
15082;SDS011;7640;53.116;6.878;2023-12-20T13:51:29;7.67;;;2.43;;
15082;SDS011;7640;53.116;6.878;2023-12-20T13:54:00;8.73;;;2.27;;
15082;SDS011;7640;53.116;6.878;2023-12-20T13:56:30;11.03;;;2.33;;
15082;SDS011;7640;53.116;6.878;2023-12-20T13:59:20;9.43;;;3.10;;
15082;SDS011;7640;53.116;6.878;2023-12-20T14:01:53;11.13;;;2.80;;
15082;SDS011;7640;53.116;6.878;2023-12-20T14:04:24;9.73;;;2.77;;
15082;SDS011;7640;53.116;6.878;2023-12-20T14:07:08;8.50;;;2.33;;
15082;SDS011;7640;53.116;6.878;2023-12-20T14:09:43;9.57;;;2.30;;
15082;SDS011;7640;53.116;6.878;2023-12-20T14:12:15;7.93;;;2.10;;
15082;SDS011;7640;53.116;6.878;2023-12-20T14:14:50;7.77;;;2.20;;
15082;SDS011;7640;53.116;6.878;2023-12-20T14:17:27;6.43;;;2.30;;
15082;SDS011;7640;53.116;6.878;2023-12-20T14:20:09;11.60;;;2.87;;
15082;SDS011;7640;53.116;6.878;2023-12-20T14:22:49;7.07;;;1.83;;
15082;SDS011;7640;53.116;6.878;2023-12-20T14:25:22;6.37;;;2.10;;
15082;SDS011;7640;53.116;6.878;2023-12-20T14:27:59;11.20;;;1.90;;
15082;SDS011;7640;53.116;6.878;2023-12-20T14:30:30;6.83;;;1.73;;
15082;SDS011;7640;53.116;6.878;2023-12-20T14:33:00;5.03;;;1.60;;
15082;SDS011;7640;53.116;6.878;2023-12-20T14:35:32;6.83;;;1.60;;
15082;SDS011;7640;53.116;6.878;2023-12-20T14:38:01;7.00;;;1.70;;
15082;SDS011;7640;53.116;6.878;2023-12-20T14:40:35;9.90;;;1.70;;
15082;SDS011;7640;53.116;6.878;2023-12-20T14:43:06;4.73;;;1.40;;
15082;SDS011;7640;53.116;6.878;2023-12-20T14:45:50;6.03;;;1.40;;
15082;SDS011;7640;53.116;6.878;2023-12-20T14:48:20;6.27;;;1.53;;
15082;SDS011;7640;53.116;6.878;2023-12-20T14:50:54;6.17;;;1.70;;
15082;SDS011;7640;53.116;6.878;2023-12-20T14:53:24;6.63;;;1.80;;
15082;SDS011;7640;53.116;6.878;2023-12-20T14:56:07;8.73;;;1.80;;
15082;SDS011;7640;53.116;6.878;2023-12-20T14:58:45;8.50;;;2.03;;
15082;SDS011;7640;53.116;6.878;2023-12-20T15:01:15;7.67;;;1.87;;
15082;SDS011;7640;53.116;6.878;2023-12-20T15:03:53;8.57;;;1.70;;
15082;SDS011;7640;53.116;6.878;2023-12-20T15:06:32;7.60;;;1.90;;
15082;SDS011;7640;53.116;6.878;2023-12-20T15:09:02;6.00;;;1.60;;
15082;SDS011;7640;53.116;6.878;2023-12-20T15:11:35;9.20;;;1.90;;
15082;SDS011;7640;53.116;6.878;2023-12-20T15:14:05;6.97;;;2.10;;
15082;SDS011;7640;53.116;6.878;2023-12-20T15:16:36;10.03;;;2.17;;
15082;SDS011;7640;53.116;6.878;2023-12-20T15:19:06;5.70;;;1.80;;
15082;SDS011;7640;53.116;6.878;2023-12-20T15:21:44;5.57;;;2.00;;
15082;SDS011;7640;53.116;6.878;2023-12-20T15:24:16;7.80;;;2.30;;
15082;SDS011;7640;53.116;6.878;2023-12-20T15:26:55;7.60;;;2.00;;